Time;durP1;ratioP1;P1;durP2;ratioP2;P2;SDS_P1;SDS_P2;PMS_P1;PMS_P2;Temp;Humidity;BMP_temperature;BMP_pressure;BME280_temperature;BME280_humidity;BME280_pressure;Samples;Min_cycle;Max_cycle;Signal;HPM_P1;HPM_P2
2021/10/04 00:01:05;;;;;;;8.45;0.98;;;13.30;99.90;;;;;;5111717;27;38760;-78
2021/10/04 00:03:32;;;;;;;8.07;0.73;;;13.30;99.90;;;;;;5119282;27;37610;-77
2021/10/04 00:05:58;;;;;;;2.30;0.77;;;13.20;99.90;;;;;;5118570;27;37908;-77
2021/10/04 00:08:24;;;;;;;8.38;1.33;;;13.20;99.90;;;;;;5111259;27;39698;-77
2021/10/04 00:10:52;;;;;;;4.88;1.17;;;13.20;99.90;;;;;;5109137;27;38991;-77
2021/10/04 00:13:18;;;;;;;4.85;0.90;;;13.20;99.90;;;;;;5112610;27;40695;-77
2021/10/04 00:15:45;;;;;;;4.55;0.82;;;13.20;99.90;;;;;;5115946;27;36960;-76
2021/10/04 00:18:11;;;;;;;6.10;1.40;;;13.30;99.90;;;;;;5108360;27;40244;-77
2021/10/04 00:20:37;;;;;;;6.18;1.00;;;13.30;99.90;;;;;;5118481;27;39067;-77
2021/10/04 00:23:04;;;;;;;6.35;1.13;;;13.20;99.90;;;;;;5111405;27;38638;-77
2021/10/04 00:25:31;;;;;;;4.35;0.82;;;13.20;99.90;;;;;;5115882;27;37597;-77
2021/10/04 00:27:57;;;;;;;7.35;1.00;;;13.20;99.90;;;;;;5116437;27;39013;-77
2021/10/04 00:30:23;;;;;;;3.45;0.95;;;13.20;99.90;;;;;;5119314;27;39172;-77
2021/10/04 00:32:51;;;;;;;4.60;1.08;;;13.20;99.90;;;;;;5117998;27;37596;-77
2021/10/04 00:35:20;;;;;;;6.43;1.27;;;13.20;99.90;;;;;;5113005;27;38709;-77
2021/10/04 00:37:47;;;;;;;3.85;0.93;;;13.20;99.90;;;;;;5111457;27;39832;-77
2021/10/04 00:40:16;;;;;;;3.75;0.80;;;13.20;99.90;;;;;;5107989;27;38869;-77
2021/10/04 00:42:42;;;;;;;3.72;0.80;;;13.20;99.90;;;;;;5116533;27;37868;-77
2021/10/04 00:45:10;;;;;;;4.20;0.90;;;13.20;99.90;;;;;;5114893;27;39729;-77
2021/10/04 00:47:38;;;;;;;6.72;0.90;;;13.10;99.90;;;;;;5109667;27;40239;-77
2021/10/04 00:50:07;;;;;;;5.28;1.02;;;13.10;99.90;;;;;;5114615;27;38618;-76
2021/10/04 00:52:33;;;;;;;4.88;0.77;;;13.10;99.90;;;;;;5118351;27;39000;-76
2021/10/04 00:54:59;;;;;;;6.72;0.88;;;13.20;99.90;;;;;;5119130;27;35954;-77
2021/10/04 00:57:25;;;;;;;4.72;0.70;;;13.20;99.90;;;;;;5114156;27;39388;-77
2021/10/04 00:59:51;;;;;;;5.43;0.98;;;13.20;99.90;;;;;;5116778;27;38106;-77
2021/10/04 01:02:17;;;;;;;7.05;0.90;;;13.10;99.90;;;;;;5110845;27;38990;-77
2021/10/04 01:04:44;;;;;;;9.07;1.00;;;13.10;99.90;;;;;;5113614;27;38463;-77
2021/10/04 01:07:11;;;;;;;4.38;0.80;;;13.10;99.90;;;;;;5118109;27;38684;-77
2021/10/04 01:09:37;;;;;;;3.20;0.80;;;13.10;99.90;;;;;;5117396;27;37413;-77
2021/10/04 01:12:04;;;;;;;7.68;1.00;;;13.10;99.90;;;;;;5114463;27;37481;-77
2021/10/04 01:14:30;;;;;;;4.82;1.10;;;13.10;99.90;;;;;;5114735;27;36995;-77
2021/10/04 01:16:56;;;;;;;3.35;0.80;;;13.10;99.90;;;;;;5111161;27;39038;-77
2021/10/04 01:19:22;;;;;;;3.10;0.90;;;13.00;99.90;;;;;;5114207;27;38814;-77
2021/10/04 01:21:49;;;;;;;4.65;0.60;;;13.10;99.90;;;;;;5114891;27;37274;-77
2021/10/04 01:24:16;;;;;;;4.28;0.80;;;13.00;99.90;;;;;;5109299;27;37675;-77
2021/10/04 01:26:42;;;;;;;10.10;1.10;;;13.00;99.90;;;;;;5113045;27;40507;-77
2021/10/04 01:29:08;;;;;;;7.88;1.10;;;13.00;99.90;;;;;;5131710;27;39693;-77
2021/10/04 01:31:34;;;;;;;5.90;1.52;;;13.00;99.90;;;;;;5116216;27;38581;-77
2021/10/04 01:34:00;;;;;;;8.35;0.70;;;13.00;99.90;;;;;;5119290;27;37808;-76
2021/10/04 01:36:29;;;;;;;4.55;0.80;;;13.00;99.90;;;;;;5119261;27;47061;-77
2021/10/04 01:38:56;;;;;;;7.03;1.15;;;13.00;99.90;;;;;;5111866;27;37024;-77
2021/10/04 01:41:23;;;;;;;10.25;1.27;;;12.90;99.90;;;;;;5113958;27;38050;-77
2021/10/04 01:43:51;;;;;;;7.05;1.05;;;12.90;99.90;;;;;;5117050;27;37585;-77
2021/10/04 01:46:17;;;;;;;10.77;1.23;;;12.90;99.90;;;;;;5116801;27;39817;-77
2021/10/04 01:48:43;;;;;;;3.28;1.00;;;12.90;99.90;;;;;;5120426;27;37965;-77
2021/10/04 01:51:10;;;;;;;6.10;1.10;;;12.90;99.90;;;;;;5117784;27;38611;-77
2021/10/04 01:53:36;;;;;;;5.75;0.93;;;12.90;99.90;;;;;;5118604;27;37198;-77
2021/10/04 01:56:03;;;;;;;4.18;0.90;;;12.90;99.90;;;;;;5118105;27;39631;-76
2021/10/04 01:58:29;;;;;;;10.38;1.60;;;12.90;99.90;;;;;;5117748;27;38841;-76
2021/10/04 02:00:57;;;;;;;8.20;1.42;;;12.90;99.90;;;;;;5119686;27;37871;-77
2021/10/04 02:03:23;;;;;;;5.65;1.48;;;12.90;99.90;;;;;;5119770;27;37709;-77
2021/10/04 02:05:49;;;;;;;4.70;1.25;;;12.90;99.90;;;;;;5112543;27;39686;-77
2021/10/04 02:08:15;;;;;;;6.90;1.00;;;12.80;99.90;;;;;;5113100;27;38950;-77
2021/10/04 02:10:42;;;;;;;7.88;1.65;;;12.80;99.90;;;;;;5117741;27;39256;-77
2021/10/04 02:13:10;;;;;;;9.15;2.00;;;12.80;99.90;;;;;;5119935;27;37046;-76
2021/10/04 02:15:38;;;;;;;6.47;1.13;;;12.80;99.90;;;;;;5118712;27;38806;-77
2021/10/04 02:18:05;;;;;;;3.80;1.48;;;12.80;99.90;;;;;;5117422;27;38724;-77
2021/10/04 02:20:33;;;;;;;8.38;1.20;;;12.70;99.90;;;;;;5118129;27;39151;-77
2021/10/04 02:23:06;;;;;;;3.50;0.93;;;12.70;99.90;;;;;;5118635;27;36599;-77
2021/10/04 02:25:37;;;;;;;5.30;1.08;;;12.70;99.90;;;;;;5118864;27;47533;-77
2021/10/04 02:28:05;;;;;;;4.15;1.30;;;12.70;99.90;;;;;;5099845;27;38734;-77
2021/10/04 02:30:31;;;;;;;6.57;1.50;;;12.70;99.90;;;;;;5116421;27;37931;-77
2021/10/04 02:32:58;;;;;;;6.47;1.17;;;12.70;99.90;;;;;;5115298;27;34662;-77
2021/10/04 02:35:24;;;;;;;10.75;1.33;;;12.70;99.90;;;;;;5113383;27;38286;-76
2021/10/04 02:37:53;;;;;;;3.83;1.38;;;12.70;99.90;;;;;;5115971;27;39070;-76
2021/10/04 02:40:20;;;;;;;7.40;1.88;;;12.60;99.90;;;;;;5111189;27;39055;-76
2021/10/04 02:42:46;;;;;;;5.20;1.50;;;12.60;99.90;;;;;;5108653;27;37644;-77
2021/10/04 02:45:16;;;;;;;6.85;1.55;;;12.60;99.90;;;;;;5101239;27;38037;-76
2021/10/04 02:47:43;;;;;;;9.18;1.70;;;12.60;99.90;;;;;;5135527;27;38324;-77
2021/10/04 02:50:14;;;;;;;10.35;1.77;;;12.60;99.90;;;;;;5117704;27;38590;-77
2021/10/04 02:52:40;;;;;;;9.07;1.60;;;12.60;99.90;;;;;;5120977;27;38515;-76
2021/10/04 02:55:07;;;;;;;2.97;1.50;;;12.50;99.90;;;;;;5113413;27;39295;-77
2021/10/04 02:57:33;;;;;;;4.82;2.08;;;12.50;99.90;;;;;;5119862;27;38863;-76
2021/10/04 03:00:00;;;;;;;7.85;1.60;;;12.50;99.90;;;;;;5140853;27;37989;-76
2021/10/04 03:02:26;;;;;;;4.10;1.42;;;12.40;99.90;;;;;;5139131;27;37144;-76
2021/10/04 03:04:52;;;;;;;8.75;1.63;;;12.40;99.90;;;;;;5136701;27;38207;-76
2021/10/04 03:07:19;;;;;;;5.85;1.70;;;12.40;99.90;;;;;;5131560;27;38728;-77
2021/10/04 03:09:45;;;;;;;5.47;1.45;;;12.40;99.90;;;;;;5114990;27;39015;-75
2021/10/04 03:12:11;;;;;;;9.80;2.13;;;12.40;99.90;;;;;;5116618;27;38557;-77
2021/10/04 03:14:37;;;;;;;10.38;1.67;;;12.50;99.90;;;;;;5118437;27;40225;-78
2021/10/04 03:17:04;;;;;;;5.53;1.50;;;12.40;99.90;;;;;;5119018;27;39424;-77
2021/10/04 03:19:30;;;;;;;8.68;1.67;;;12.40;99.90;;;;;;5120175;27;38735;-78
2021/10/04 03:21:56;;;;;;;5.63;1.75;;;12.40;99.90;;;;;;5134926;27;37166;-78
2021/10/04 03:24:22;;;;;;;8.45;2.15;;;12.30;99.90;;;;;;5136765;27;38931;-78
2021/10/04 03:26:48;;;;;;;5.80;1.48;;;12.30;99.90;;;;;;5138676;27;38399;-77
2021/10/04 03:29:16;;;;;;;7.97;1.50;;;12.30;99.90;;;;;;5136405;27;38761;-78
2021/10/04 03:31:44;;;;;;;9.48;2.03;;;12.30;99.90;;;;;;5138523;27;37339;-78
2021/10/04 03:34:11;;;;;;;3.67;1.05;;;12.30;99.90;;;;;;5112927;27;39596;-78
2021/10/04 03:36:38;;;;;;;2.58;1.10;;;12.30;99.90;;;;;;5139004;27;38454;-77
2021/10/04 03:39:05;;;;;;;4.60;1.10;;;12.30;99.90;;;;;;5137841;27;38455;-78
2021/10/04 03:41:32;;;;;;;4.45;1.20;;;12.30;99.90;;;;;;5135275;27;36992;-77
2021/10/04 03:43:58;;;;;;;6.03;1.60;;;12.20;99.90;;;;;;5139636;27;38613;-77
2021/10/04 03:46:24;;;;;;;6.57;1.25;;;12.30;99.90;;;;;;5117167;27;38989;-78
2021/10/04 03:48:51;;;;;;;8.13;1.38;;;12.30;99.90;;;;;;5138185;27;37521;-77
2021/10/04 03:51:17;;;;;;;4.78;1.10;;;12.30;99.90;;;;;;5135666;27;38151;-77
2021/10/04 03:53:44;;;;;;;6.90;1.05;;;12.30;99.90;;;;;;5109289;27;38835;-75
2021/10/04 03:56:10;;;;;;;5.82;1.20;;;12.30;99.90;;;;;;5114900;27;38338;-77
2021/10/04 03:58:36;;;;;;;8.40;1.17;;;12.30;99.90;;;;;;5111096;27;39512;-77
2021/10/04 04:01:05;;;;;;;6.03;1.27;;;12.20;99.90;;;;;;5107549;27;37798;-77
2021/10/04 04:03:31;;;;;;;6.45;0.98;;;12.20;99.90;;;;;;5108852;27;38964;-77
2021/10/04 04:05:57;;;;;;;11.32;1.55;;;12.20;99.90;;;;;;5114481;27;38460;-76
2021/10/04 04:08:23;;;;;;;6.50;1.30;;;12.20;99.90;;;;;;5112174;27;38356;-77
2021/10/04 04:10:49;;;;;;;7.25;1.20;;;12.10;99.90;;;;;;5117708;27;37313;-75
2021/10/04 04:13:15;;;;;;;2.97;0.90;;;12.10;99.90;;;;;;5130717;27;40669;-77
2021/10/04 04:15:43;;;;;;;4.50;1.17;;;12.10;99.90;;;;;;5117850;27;38368;-76
2021/10/04 04:18:10;;;;;;;5.30;1.15;;;12.00;99.90;;;;;;5117197;27;38042;-77
2021/10/04 04:20:36;;;;;;;4.10;1.15;;;12.10;99.90;;;;;;5118159;27;37152;-77
2021/10/04 04:23:02;;;;;;;5.40;1.17;;;12.10;99.90;;;;;;5116166;27;38904;-76
2021/10/04 04:25:28;;;;;;;7.75;1.65;;;12.10;99.90;;;;;;5113793;27;39741;-77
2021/10/04 04:27:58;;;;;;;9.30;1.25;;;12.10;99.90;;;;;;5111075;27;38726;-77
2021/10/04 04:30:25;;;;;;;6.90;1.05;;;12.10;99.90;;;;;;5112777;27;37290;-77
2021/10/04 04:32:51;;;;;;;5.57;1.08;;;12.00;99.90;;;;;;5111547;27;39750;-77
2021/10/04 04:35:17;;;;;;;7.95;1.40;;;12.00;99.90;;;;;;5116483;27;38479;-77
2021/10/04 04:37:43;;;;;;;8.13;0.95;;;12.00;99.90;;;;;;5115922;27;40825;-77
2021/10/04 04:40:16;;;;;;;5.70;1.85;;;12.00;99.90;;;;;;5111468;27;35247;-77
2021/10/04 04:42:44;;;;;;;5.35;1.90;;;12.00;99.90;;;;;;5111930;27;39647;-77
2021/10/04 04:45:18;;;;;;;8.18;1.27;;;11.90;99.90;;;;;;5113538;27;38770;-78
2021/10/04 04:47:46;;;;;;;7.57;1.27;;;11.90;99.90;;;;;;5113470;27;38219;-77
2021/10/04 04:50:12;;;;;;;6.90;1.40;;;11.90;99.90;;;;;;5116980;27;37972;-77
2021/10/04 04:52:38;;;;;;;9.27;1.45;;;11.90;99.90;;;;;;5106433;27;40762;-77
2021/10/04 04:55:06;;;;;;;4.80;1.33;;;12.00;99.90;;;;;;5113287;27;35690;-77
2021/10/04 04:57:33;;;;;;;8.93;1.50;;;12.00;99.90;;;;;;5110854;27;47030;-77
2021/10/04 04:59:59;;;;;;;6.00;1.20;;;12.00;99.90;;;;;;5112883;27;36067;-77
2021/10/04 05:02:26;;;;;;;7.55;1.50;;;12.10;99.90;;;;;;5111524;27;38781;-77
2021/10/04 05:04:52;;;;;;;4.38;1.45;;;12.10;99.90;;;;;;5116757;27;38511;-77
2021/10/04 05:07:18;;;;;;;9.85;1.42;;;12.10;99.90;;;;;;5115829;27;38351;-77
2021/10/04 05:09:44;;;;;;;7.18;1.20;;;12.10;99.90;;;;;;5110776;27;38899;-75
2021/10/04 05:12:11;;;;;;;8.27;1.38;;;12.10;99.90;;;;;;5109045;27;40441;-77
2021/10/04 05:14:37;;;;;;;8.70;1.80;;;12.10;99.90;;;;;;5113152;27;39359;-77
2021/10/04 05:17:03;;;;;;;7.32;2.15;;;12.00;99.90;;;;;;5111396;27;39697;-77
2021/10/04 05:19:29;;;;;;;10.55;1.90;;;12.00;99.90;;;;;;5109131;27;39031;-77
2021/10/04 05:21:55;;;;;;;9.40;2.08;;;12.00;99.90;;;;;;5117355;27;36932;-77
2021/10/04 05:24:21;;;;;;;6.10;2.08;;;12.00;99.90;;;;;;5120983;27;38387;-76
2021/10/04 05:26:47;;;;;;;11.32;1.80;;;12.00;99.90;;;;;;5110759;27;39047;-77
2021/10/04 05:29:13;;;;;;;4.93;1.73;;;12.00;99.90;;;;;;5120871;27;38350;-76
2021/10/04 05:31:40;;;;;;;17.13;2.33;;;12.00;99.90;;;;;;5139169;27;40355;-76
2021/10/04 05:34:06;;;;;;;10.40;2.42;;;11.90;99.90;;;;;;5117245;27;38465;-76
2021/10/04 05:36:32;;;;;;;9.18;2.03;;;11.90;99.90;;;;;;5116198;27;38165;-77
2021/10/04 05:39:00;;;;;;;11.65;2.47;;;11.90;99.90;;;;;;5121138;27;36613;-76
2021/10/04 05:41:26;;;;;;;11.68;2.28;;;11.90;99.90;;;;;;5114553;27;39497;-76
2021/10/04 05:43:52;;;;;;;4.68;1.83;;;11.90;99.90;;;;;;5107934;27;39776;-76
2021/10/04 05:46:18;;;;;;;7.72;2.22;;;11.80;99.90;;;;;;5110495;27;38413;-76
2021/10/04 05:48:44;;;;;;;7.28;2.80;;;11.70;99.90;;;;;;5116639;27;39246;-77
2021/10/04 05:51:10;;;;;;;9.77;2.50;;;11.70;99.90;;;;;;5107503;27;40644;-78
2021/10/04 05:53:37;;;;;;;10.35;2.38;;;11.70;99.90;;;;;;5121149;27;39172;-76
2021/10/04 05:56:03;;;;;;;7.95;1.92;;;11.60;99.90;;;;;;5114173;27;39037;-75
2021/10/04 05:58:29;;;;;;;9.18;2.10;;;11.60;99.90;;;;;;5136669;27;36911;-77
2021/10/04 06:00:56;;;;;;;6.75;2.15;;;11.70;99.90;;;;;;5121755;27;39559;-77
2021/10/04 06:03:22;;;;;;;8.65;2.55;;;11.60;99.90;;;;;;5116315;27;39513;-77
2021/10/04 06:05:48;;;;;;;8.73;2.40;;;11.60;99.90;;;;;;5119428;27;39041;-78
2021/10/04 06:08:14;;;;;;;8.93;2.40;;;11.70;99.90;;;;;;5116754;27;39115;-77
2021/10/04 06:10:40;;;;;;;7.82;2.08;;;11.70;99.90;;;;;;5138091;27;38178;-77
2021/10/04 06:13:06;;;;;;;8.73;2.22;;;11.70;99.90;;;;;;5118822;27;39033;-77
2021/10/04 06:15:33;;;;;;;6.88;2.30;;;11.70;99.90;;;;;;5122190;27;38365;-78
2021/10/04 06:17:59;;;;;;;10.90;2.58;;;11.70;99.90;;;;;;5137641;27;37349;-77
2021/10/04 06:20:25;;;;;;;9.27;2.55;;;11.60;99.90;;;;;;5138493;27;38605;-79
2021/10/04 06:22:51;;;;;;;10.10;3.15;;;11.60;99.90;;;;;;5138359;27;41228;-78
2021/10/04 06:25:18;;;;;;;12.40;2.95;;;11.60;99.90;;;;;;5141687;27;38168;-79
2021/10/04 06:27:55;;;;;;;9.32;3.13;;;11.50;99.90;;;;;;5120938;27;37799;-79
2021/10/04 06:30:21;;;;;;;9.18;3.00;;;11.50;99.90;;;;;;5115537;27;39629;-78
2021/10/04 06:32:48;;;;;;;8.82;3.22;;;11.40;99.90;;;;;;5142657;27;38585;-76
2021/10/04 06:35:14;;;;;;;7.15;2.80;;;11.40;99.90;;;;;;5119343;27;37896;-79
2021/10/04 06:37:40;;;;;;;10.70;2.80;;;11.40;99.90;;;;;;5124806;27;37970;-78
2021/10/04 06:40:07;;;;;;;11.57;3.10;;;11.40;99.90;;;;;;5143537;27;39255;-79
2021/10/04 06:42:34;;;;;;;11.43;3.05;;;11.40;99.90;;;;;;5148111;27;38267;-78
2021/10/04 06:45:00;;;;;;;13.02;3.28;;;11.40;99.90;;;;;;5146999;27;37736;-78
2021/10/04 06:47:27;;;;;;;6.78;2.95;;;11.40;99.90;;;;;;5119373;27;37645;-79
2021/10/04 06:49:53;;;;;;;10.27;2.65;;;11.40;99.90;;;;;;5126749;27;39875;-79
2021/10/04 06:52:19;;;;;;;9.00;2.90;;;11.40;99.90;;;;;;5143122;27;38819;-79
2021/10/04 06:54:45;;;;;;;12.45;2.95;;;11.40;99.90;;;;;;5127586;27;38453;-78
2021/10/04 06:57:11;;;;;;;6.43;3.00;;;11.50;99.90;;;;;;5119621;27;39048;-78
2021/10/04 06:59:37;;;;;;;4.93;2.55;;;11.50;99.90;;;;;;5129054;27;39528;-78
2021/10/04 07:02:04;;;;;;;7.43;2.40;;;11.50;99.90;;;;;;5143500;27;39310;-79
2021/10/04 07:04:30;;;;;;;9.07;2.40;;;11.60;99.90;;;;;;5120545;27;38289;-79
2021/10/04 07:06:56;;;;;;;11.40;2.78;;;11.60;99.90;;;;;;5144949;27;38314;-79
2021/10/04 07:09:22;;;;;;;7.30;2.75;;;11.60;99.90;;;;;;5145616;27;40186;-78
2021/10/04 07:11:48;;;;;;;7.38;2.42;;;11.70;99.90;;;;;;5123757;27;38914;-80
2021/10/04 07:14:14;;;;;;;8.60;2.20;;;11.70;99.90;;;;;;5120352;27;39209;-79
2021/10/04 07:16:40;;;;;;;5.22;1.77;;;11.80;99.90;;;;;;5142961;27;37613;-78
2021/10/04 07:19:07;;;;;;;13.40;2.90;;;11.90;99.90;;;;;;5114242;27;39470;-78
2021/10/04 07:21:33;;;;;;;6.15;2.05;;;12.00;99.90;;;;;;5124031;27;39773;-79
2021/10/04 07:23:59;;;;;;;6.28;1.60;;;12.20;99.90;;;;;;5122898;27;38694;-79
2021/10/04 07:26:30;;;;;;;6.75;1.58;;;12.20;99.90;;;;;;5121925;27;39284;-78
2021/10/04 07:28:57;;;;;;;10.88;1.88;;;12.30;99.90;;;;;;5145259;27;38904;-78
2021/10/04 07:31:23;;;;;;;8.52;2.17;;;12.30;99.90;;;;;;5123746;27;40000;-78
2021/10/04 07:33:49;;;;;;;6.03;1.52;;;12.40;99.90;;;;;;5123317;27;38821;-79
2021/10/04 07:36:15;;;;;;;9.57;1.85;;;12.40;99.90;;;;;;5118791;27;38223;-79
2021/10/04 07:38:42;;;;;;;7.95;1.63;;;12.50;99.90;;;;;;5124763;27;40020;-79
2021/10/04 07:41:08;;;;;;;11.18;1.85;;;12.50;99.90;;;;;;5120042;27;38653;-79
2021/10/04 07:43:35;;;;;;;7.32;2.10;;;12.60;99.90;;;;;;5131332;27;38819;-78
2021/10/04 07:46:04;;;;;;;10.45;2.80;;;12.60;99.90;;;;;;5138394;27;36994;-79
2021/10/04 07:48:31;;;;;;;11.77;1.90;;;12.70;99.90;;;;;;5121999;27;47260;-78
2021/10/04 07:50:57;;;;;;;11.43;2.40;;;12.70;99.90;;;;;;5139132;27;38352;-77
2021/10/04 07:53:23;;;;;;;8.95;2.97;;;12.70;99.90;;;;;;5133799;27;39044;-78
2021/10/04 07:55:49;;;;;;;6.47;2.10;;;12.70;99.90;;;;;;5134567;27;37157;-78
2021/10/04 07:58:15;;;;;;;12.80;2.22;;;12.70;99.90;;;;;;5138575;27;39829;-78
2021/10/04 08:00:41;;;;;;;10.15;2.13;;;12.60;99.90;;;;;;5145415;27;38745;-78
2021/10/04 08:03:07;;;;;;;9.38;2.63;;;12.70;99.90;;;;;;5117712;27;38804;-79
2021/10/04 08:05:34;;;;;;;10.38;3.00;;;12.70;99.90;;;;;;5120311;27;37723;-78
2021/10/04 08:08:00;;;;;;;6.15;2.47;;;12.80;99.90;;;;;;5135122;27;39811;-79
2021/10/04 08:10:26;;;;;;;8.15;2.30;;;12.70;99.90;;;;;;5105849;27;40582;-79
2021/10/04 08:12:52;;;;;;;9.90;3.08;;;12.80;99.90;;;;;;5121322;27;38655;-79
2021/10/04 08:15:19;;;;;;;9.57;2.58;;;12.90;99.90;;;;;;5119554;27;37297;-79
2021/10/04 08:17:45;;;;;;;5.93;2.63;;;13.00;99.90;;;;;;5118490;27;37734;-78
2021/10/04 08:20:12;;;;;;;7.82;2.60;;;13.10;99.90;;;;;;5113577;27;39303;-79
2021/10/04 08:22:39;;;;;;;8.75;2.70;;;13.10;99.90;;;;;;5120387;27;39584;-79
2021/10/04 08:25:08;;;;;;;9.80;3.22;;;13.20;99.90;;;;;;5112355;27;37522;-77
2021/10/04 08:27:34;;;;;;;7.15;3.03;;;13.30;99.90;;;;;;5111300;27;40257;-80
2021/10/04 08:30:00;;;;;;;7.70;3.00;;;13.30;99.90;;;;;;5118501;27;38442;-77
2021/10/04 08:32:26;;;;;;;11.05;3.15;;;13.30;99.90;;;;;;5114352;27;41100;-78
2021/10/04 08:34:52;;;;;;;9.35;3.25;;;13.40;99.90;;;;;;5113877;27;38428;-80
2021/10/04 08:37:18;;;;;;;10.43;3.05;;;13.40;99.90;;;;;;5121900;27;38783;-77
2021/10/04 08:39:44;;;;;;;9.52;3.75;;;13.40;99.90;;;;;;5108130;27;37898;-79
2021/10/04 08:42:12;;;;;;;9.05;3.38;;;13.50;99.90;;;;;;5100638;27;39344;-79
2021/10/04 08:44:38;;;;;;;7.35;3.13;;;13.50;99.90;;;;;;5132064;27;36969;-78
2021/10/04 08:47:07;;;;;;;13.40;2.47;;;13.60;99.90;;;;;;5113610;27;38840;-79
2021/10/04 08:49:34;;;;;;;10.43;3.35;;;13.70;99.90;;;;;;5119640;27;38012;-79
2021/10/04 08:52:01;;;;;;;12.30;2.97;;;13.80;99.90;;;;;;5122171;27;36226;-79
2021/10/04 08:54:29;;;;;;;9.23;3.25;;;13.80;99.90;;;;;;5106609;27;46860;-79
2021/10/04 08:57:01;;;;;;;9.00;3.67;;;13.80;99.90;;;;;;5110980;27;20155;-79
2021/10/04 08:59:27;;;;;;;10.70;3.28;;;14.00;99.90;;;;;;5118346;27;38720;-79
2021/10/04 09:02:31;;;;;;;10.20;2.85;;;14.10;99.90;;;;;;5117360;27;39795;-80
2021/10/04 09:05:13;;;;;;;9.70;2.63;;;14.10;99.90;;;;;;5114784;27;47315;-77
2021/10/04 09:07:45;;;;;;;9.82;2.95;;;14.20;99.90;;;;;;5111993;27;48796;-78
2021/10/04 09:10:13;;;;;;;;;;;14.30;99.90;;;;;;5110989;27;38725;-80
2021/10/04 09:12:46;;;;;;;9.90;2.63;;;14.30;99.90;;;;;;5117071;27;37838;-79
2021/10/04 09:15:34;;;;;;;11.70;2.85;;;14.40;99.90;;;;;;5115673;27;37965;-79
2021/10/04 09:18:09;;;;;;;8.18;2.95;;;14.50;99.90;;;;;;5112936;27;39861;-81
2021/10/04 09:21:09;;;;;;;10.88;2.80;;;14.70;99.90;;;;;;5119502;27;48817;-79
2021/10/04 09:23:52;;;;;;;8.93;2.40;;;14.80;99.90;;;;;;5127379;27;47465;-79
2021/10/04 09:26:28;;;;;;;15.30;2.40;;;14.80;99.90;;;;;;5122539;27;37313;-79
2021/10/04 09:29:03;;;;;;;9.88;2.58;;;14.80;99.90;;;;;;5115029;27;37603;-80
2021/10/04 09:31:48;;;;;;;5.65;1.98;;;14.80;99.90;;;;;;5119710;27;48576;-80
2021/10/04 09:34:23;;;;;;;12.30;2.90;;;14.90;99.90;;;;;;5119464;27;38010;-78
2021/10/04 09:36:55;;;;;;;10.95;2.35;;;15.10;99.90;;;;;;5115688;27;37161;-78
2021/10/04 09:39:25;;;;;;;12.48;2.35;;;15.20;99.90;;;;;;5117577;27;38389;-81
2021/10/04 09:42:02;;;;;;;13.13;2.70;;;15.20;99.90;;;;;;5121778;27;38284;-81
2021/10/04 09:44:47;;;;;;;10.82;1.95;;;15.10;99.90;;;;;;5110908;27;48450;-80
2021/10/04 09:47:20;;;;;;;9.55;2.00;;;15.30;99.90;;;;;;5107508;27;37007;-79
2021/10/04 09:49:50;;;;;;;7.55;2.38;;;15.40;99.90;;;;;;5118981;27;39500;-81
2021/10/04 09:52:17;;;;;;;9.63;2.00;;;15.50;99.90;;;;;;5118481;27;38327;-79
2021/10/04 09:54:47;;;;;;;9.52;2.42;;;15.60;99.90;;;;;;5133436;27;37976;-79
2021/10/04 09:57:21;;;;;;;9.73;2.53;;;15.70;99.90;;;;;;5113317;27;36516;-80
2021/10/04 09:59:49;;;;;;;13.23;1.90;;;15.80;99.90;;;;;;5128128;27;39626;-80
2021/10/04 10:02:18;;;;;;;9.65;2.20;;;15.60;99.90;;;;;;5135358;27;39189;-79
2021/10/04 10:04:50;;;;;;;13.43;3.75;;;15.70;99.90;;;;;;5119814;27;40198;-78
2021/10/04 10:07:18;;;;;;;10.43;2.20;;;15.80;99.90;;;;;;5143259;27;37260;-78
2021/10/04 10:09:44;;;;;;;10.85;2.28;;;15.80;99.90;;;;;;5144338;27;39521;-80
2021/10/04 10:12:10;;;;;;;12.55;2.97;;;15.90;99.90;;;;;;5144865;27;38187;-80
2021/10/04 10:14:40;;;;;;;9.20;2.10;;;15.90;99.90;;;;;;5137095;27;38203;-81
2021/10/04 10:17:14;;;;;;;12.25;3.05;;;16.10;99.90;;;;;;5117619;27;36794;-79
2021/10/04 10:19:42;;;;;;;12.02;2.90;;;16.10;99.90;;;;;;5123299;27;37399;-80
2021/10/04 10:22:15;;;;;;;13.07;2.78;;;16.20;99.90;;;;;;5132074;27;37685;-80
2021/10/04 10:24:43;;;;;;;10.20;2.22;;;16.10;99.90;;;;;;5134465;27;38092;-79
2021/10/04 10:27:09;;;;;;;15.10;2.40;;;15.90;99.90;;;;;;5128003;27;37354;-79
2021/10/04 10:29:36;;;;;;;10.15;2.15;;;16.00;99.90;;;;;;5137329;27;38858;-78
2021/10/04 10:32:06;;;;;;;17.08;3.55;;;16.30;99.90;;;;;;5134248;27;38714;-77
2021/10/04 10:34:35;;;;;;;8.52;2.10;;;16.30;99.90;;;;;;5121223;27;39096;-80
2021/10/04 10:37:04;;;;;;;9.77;2.35;;;16.20;99.90;;;;;;5145206;27;36451;-78
2021/10/04 10:39:45;;;;;;;11.48;2.13;;;16.00;99.90;;;;;;5133294;27;47422;-80
2021/10/04 10:42:22;;;;;;;9.18;2.60;;;16.10;99.90;;;;;;5117065;27;38813;-80
2021/10/04 10:44:56;;;;;;;9.10;2.13;;;16.40;99.90;;;;;;5137462;27;38722;-80
2021/10/04 10:47:38;;;;;;;12.13;2.38;;;16.60;99.90;;;;;;5120905;27;39472;-80
2021/10/04 10:50:15;;;;;;;11.85;2.60;;;16.50;99.90;;;;;;5122043;27;40776;-81
2021/10/04 10:52:47;;;;;;;9.65;2.20;;;16.70;99.90;;;;;;5114013;27;47169;-80
2021/10/04 10:55:19;;;;;;;14.02;3.13;;;16.90;99.90;;;;;;5130774;27;37147;-80
2021/10/04 10:57:51;;;;;;;9.27;2.13;;;16.80;99.90;;;;;;5122809;27;36558;-80
2021/10/04 11:00:24;;;;;;;9.02;1.92;;;16.60;99.90;;;;;;5112715;27;39912;-79
2021/10/04 11:03:13;;;;;;;10.35;2.65;;;16.60;99.90;;;;;;5122609;27;37526;-80
2021/10/04 11:05:40;;;;;;;8.98;2.13;;;16.70;99.90;;;;;;5120200;27;47560;-80
2021/10/04 11:08:20;;;;;;;11.40;2.30;;;17.00;99.90;;;;;;5116185;27;36828;-79
2021/10/04 11:10:49;;;;;;;10.82;1.95;;;17.30;99.90;;;;;;5120500;27;38808;-81
2021/10/04 11:13:39;;;;;;;11.45;2.30;;;17.10;99.90;;;;;;5117168;27;37083;-81
2021/10/04 11:16:05;;;;;;;10.27;2.33;;;17.20;99.90;;;;;;5116509;27;37531;-80
2021/10/04 11:18:46;;;;;;;7.82;2.20;;;17.40;99.90;;;;;;5134900;27;36744;-81
2021/10/04 11:21:18;;;;;;;9.45;1.52;;;17.60;99.90;;;;;;5133608;27;38555;-81
2021/10/04 11:23:48;;;;;;;7.20;1.70;;;17.50;99.90;;;;;;5119032;27;38089;-79
2021/10/04 11:26:20;;;;;;;15.93;2.60;;;17.40;99.90;;;;;;5134053;27;39375;-79
2021/10/04 11:28:48;;;;;;;13.13;2.97;;;17.50;99.90;;;;;;5134006;27;37138;-78
2021/10/04 11:31:20;;;;;;;9.93;1.90;;;17.40;99.90;;;;;;5130638;27;39180;-77
2021/10/04 11:33:50;;;;;;;9.25;2.00;;;17.80;99.90;;;;;;5110656;27;38581;-79
2021/10/04 11:36:19;;;;;;;10.63;2.17;;;17.70;99.90;;;;;;5133836;27;37811;-79
2021/10/04 11:39:00;;;;;;;10.43;1.95;;;17.20;99.90;;;;;;5123160;27;38424;-81
2021/10/04 11:41:31;;;;;;;10.37;2.40;;;17.10;99.90;;;;;;5113848;27;40412;-78
2021/10/04 11:44:07;;;;;;;10.38;1.90;;;17.00;99.90;;;;;;5137074;27;39016;-80
2021/10/04 11:46:50;;;;;;;7.15;1.77;;;16.80;99.90;;;;;;5112757;27;47985;-79
2021/10/04 11:49:24;;;;;;;12.25;1.75;;;16.90;99.90;;;;;;5109386;27;38091;-81
2021/10/04 11:51:54;;;;;;;8.43;2.00;;;17.00;99.90;;;;;;5105044;27;40581;-80
2021/10/04 11:54:45;;;;;;;8.45;1.40;;;17.10;99.90;;;;;;5095693;27;39384;-78
2021/10/04 11:57:20;;;;;;;8.43;2.00;;;17.20;99.90;;;;;;5139320;27;38728;-80
2021/10/04 11:59:58;;;;;;;14.27;2.30;;;17.30;99.90;;;;;;5111135;27;38950;-80
2021/10/04 12:02:33;;;;;;;12.30;1.80;;;17.30;99.90;;;;;;5135657;27;38755;-81
2021/10/04 12:05:19;;;;;;;10.35;2.03;;;17.30;99.90;;;;;;5114614;27;37473;-80
2021/10/04 12:07:57;;;;;;;9.65;1.55;;;17.60;99.90;;;;;;5115248;27;47313;-80
2021/10/04 12:10:23;;;;;;;6.40;1.30;;;17.50;99.90;;;;;;5135162;27;37207;-80
2021/10/04 12:12:50;;;;;;;8.90;1.38;;;17.40;99.90;;;;;;5111137;27;39745;-81
2021/10/04 12:15:19;;;;;;;11.13;1.20;;;17.40;99.90;;;;;;5113647;27;38833;-78
2021/10/04 12:17:46;;;;;;;9.45;1.50;;;17.40;99.90;;;;;;5135124;27;38263;-80
2021/10/04 12:20:21;;;;;;;8.25;1.65;;;17.40;99.90;;;;;;5116843;27;37948;-78
2021/10/04 12:22:50;;;;;;;8.60;1.38;;;17.30;99.90;;;;;;5119118;27;38267;-81
2021/10/04 12:25:31;;;;;;;9.70;1.38;;;17.40;99.90;;;;;;5115414;27;39794;-80
2021/10/04 12:28:06;;;;;;;6.03;1.15;;;17.30;99.90;;;;;;5138400;27;38779;-82
2021/10/04 12:30:56;;;;;;;9.95;1.35;;;17.30;99.90;;;;;;5116002;27;46963;-79
2021/10/04 12:33:44;;;;;;;7.90;1.40;;;17.30;99.90;;;;;;5138144;27;39558;-80
2021/10/04 12:36:10;;;;;;;7.60;1.50;;;17.50;99.90;;;;;;5111636;27;39555;-80
2021/10/04 12:38:51;;;;;;;8.63;1.40;;;17.80;99.90;;;;;;5112992;27;38701;-80
2021/10/04 12:41:17;;;;;;;8.43;1.10;;;17.50;99.90;;;;;;5120191;27;38150;-81
2021/10/04 12:43:46;;;;;;;7.47;1.00;;;17.40;99.90;;;;;;5121130;27;39379;-79
2021/10/04 12:46:17;;;;;;;9.70;1.48;;;17.40;99.90;;;;;;5111544;27;40069;-81
2021/10/04 12:48:49;;;;;;;3.78;1.08;;;17.40;99.90;;;;;;5145257;27;38012;-80
2021/10/04 12:51:19;;;;;;;8.60;1.50;;;17.40;99.90;;;;;;5127506;27;37990;-81
2021/10/04 12:53:53;;;;;;;6.85;2.05;;;17.50;99.90;;;;;;5142834;27;38528;-81